Esmond, South Dakota
Current Conditions -  °F | °C
As of 4:55 AM on Wednesday 22 Oct 2014 (Local Time) from KHON Reporting Station
Clear Clear  
Wind Chill: 55°   Ceiling: Unl
Heat Index: 55°   Visibility: 10mi
Dew Point: 40°   Wind: 17mph
Humidity: 57%   Direction: 160°SSE
Pressure: 29.86"   Gusts: 24mph
Location:  44.3062°N, 97.8068°W
Report Text: KHON 220955Z AUTO 16015G21KT 10SM CLR 13/04 A2986 RMK AO2 PK WND 17026/0923 SLP107 T01280044
Loading
Personal Weather Stations






























Interactive Weather Map New forecast layout! Learn more

10-Day Weather Forecast

Advertisements
Track Severe Weather on mobile